Time;durP1;ratioP1;P1;durP2;ratioP2;P2;SDS_P1;SDS_P2;PMS_P1;PMS_P2;Temp;Humidity;BMP_temperature;BMP_pressure;BME280_temperature;BME280_humidity;BME280_pressure;Samples;Min_cycle;Max_cycle;Signal;HPM_P1;HPM_P2
2022/04/07 00:01:38;;;;;;;23.25;6.75;;;12.70;99.90;;;;;;5094610;28;20101;-52
2022/04/07 00:04:04;;;;;;;27.90;6.72;;;12.50;99.90;;;;;;5094687;28;20028;-52
2022/04/07 00:06:30;;;;;;;23.52;7.50;;;12.40;99.90;;;;;;5094560;28;20477;-52
2022/04/07 00:08:57;;;;;;;22.58;6.72;;;12.30;99.90;;;;;;5094499;28;20032;-52
2022/04/07 00:11:23;;;;;;;28.65;6.75;;;12.20;99.90;;;;;;5094543;28;20034;-52
2022/04/07 00:13:49;;;;;;;22.00;7.63;;;12.10;99.90;;;;;;5094608;28;20107;-52
2022/04/07 00:16:15;;;;;;;24.50;6.32;;;12.00;99.90;;;;;;5094972;28;20048;-52
2022/04/07 00:18:41;;;;;;;17.40;6.00;;;11.90;99.90;;;;;;5094470;28;20428;-52
2022/04/07 00:21:11;;;;;;;21.52;5.95;;;11.80;99.90;;;;;;5094489;28;20024;-52
2022/04/07 00:23:40;;;;;;;18.63;5.68;;;11.70;99.90;;;;;;5094286;28;20069;-52
2022/04/07 00:26:06;;;;;;;40.95;12.77;;;11.70;99.90;;;;;;5094576;28;20028;-53
2022/04/07 00:28:32;;;;;;;37.60;11.15;;;11.60;99.90;;;;;;5094392;28;20035;-52
2022/04/07 00:30:59;;;;;;;28.33;7.65;;;11.50;99.90;;;;;;5094300;28;20087;-52
2022/04/07 00:33:24;;;;;;;23.60;5.57;;;11.40;99.90;;;;;;5094497;28;20543;-52
2022/04/07 00:35:50;;;;;;;26.02;5.60;;;11.40;99.90;;;;;;5094403;28;20032;-52
2022/04/07 00:38:16;;;;;;;33.53;8.80;;;11.40;99.90;;;;;;5094297;28;20069;-52
2022/04/07 00:40:42;;;;;;;27.10;6.15;;;11.40;99.90;;;;;;5094496;28;20027;-52
2022/04/07 00:43:08;;;;;;;26.80;5.78;;;11.20;99.90;;;;;;5094233;28;20464;-52
2022/04/07 00:45:34;;;;;;;22.23;7.10;;;11.20;99.90;;;;;;5094497;28;20029;-52
2022/04/07 00:48:00;;;;;;;24.85;7.78;;;11.20;99.90;;;;;;5094352;28;20035;-52
2022/04/07 00:50:26;;;;;;;21.17;5.97;;;11.20;99.90;;;;;;5094507;28;20083;-52
2022/04/07 00:52:56;;;;;;;32.70;8.75;;;11.10;99.90;;;;;;5094270;28;20031;-52
2022/04/07 00:55:24;;;;;;;28.38;8.18;;;11.10;99.90;;;;;;5094143;28;20020;-52
2022/04/07 00:57:50;;;;;;;25.20;6.20;;;11.10;99.90;;;;;;5094218;28;20020;-52
2022/04/07 01:00:17;;;;;;;20.45;5.85;;;10.90;99.90;;;;;;5094219;28;20035;-53
2022/04/07 01:02:43;;;;;;;21.67;4.38;;;10.90;99.90;;;;;;5094205;28;20025;-52
2022/04/07 01:05:09;;;;;;;17.23;5.43;;;10.90;99.90;;;;;;5094160;28;20044;-52
2022/04/07 01:07:37;;;;;;;22.02;4.57;;;10.90;99.90;;;;;;5094175;28;20032;-52
2022/04/07 01:10:09;;;;;;;49.08;12.93;;;10.90;99.90;;;;;;5094665;28;20150;-52
2022/04/07 01:12:36;;;;;;;42.80;9.98;;;10.90;99.90;;;;;;5097801;28;20032;-52
2022/04/07 01:15:05;;;;;;;33.25;8.82;;;10.90;99.90;;;;;;5097952;28;20031;-52
2022/04/07 01:17:34;;;;;;;24.50;6.78;;;10.80;99.90;;;;;;5098121;28;20436;-52
2022/04/07 01:20:01;;;;;;;25.45;8.48;;;10.80;99.90;;;;;;5097550;28;20078;-52
2022/04/07 01:22:27;;;;;;;30.55;9.70;;;10.80;99.90;;;;;;5097939;28;20035;-52
2022/04/07 01:24:53;;;;;;;29.30;8.90;;;10.70;99.90;;;;;;5097678;28;20020;-52
2022/04/07 01:27:19;;;;;;;33.35;8.55;;;10.70;99.90;;;;;;5097850;28;20050;-52
2022/04/07 01:29:45;;;;;;;30.33;7.57;;;10.60;99.90;;;;;;5097825;28;20032;-52
2022/04/07 01:32:17;;;;;;;30.42;7.57;;;10.70;99.90;;;;;;5097245;28;20058;-52
2022/04/07 01:34:44;;;;;;;28.10;7.82;;;10.60;99.90;;;;;;5097523;28;20031;-52
2022/04/07 01:37:11;;;;;;;27.55;6.90;;;10.70;99.90;;;;;;5097630;28;20074;-52
2022/04/07 01:39:40;;;;;;;23.00;7.07;;;10.60;99.90;;;;;;5097256;28;20032;-52
2022/04/07 01:42:08;;;;;;;27.95;7.80;;;10.70;99.90;;;;;;5097402;28;20036;-52
2022/04/07 01:44:40;;;;;;;36.22;8.35;;;10.70;99.90;;;;;;5097452;28;20035;-52
2022/04/07 01:47:08;;;;;;;29.05;9.10;;;10.70;99.90;;;;;;5097005;28;20039;-52
2022/04/07 01:49:36;;;;;;;42.78;16.60;;;10.70;99.90;;;;;;5097301;28;20058;-52
2022/04/07 01:52:04;;;;;;;57.20;24.13;;;10.80;99.90;;;;;;5097257;28;20028;-52
2022/04/07 01:54:31;;;;;;;64.40;29.75;;;10.80;99.90;;;;;;5096951;28;20058;-52
2022/04/07 01:56:58;;;;;;;52.10;20.48;;;10.70;99.90;;;;;;5097314;28;20082;-52
2022/04/07 01:59:26;;;;;;;33.58;13.48;;;10.80;99.90;;;;;;5096921;28;20024;-52
2022/04/07 02:01:51;;;;;;;29.20;11.88;;;10.70;99.90;;;;;;5097255;28;20023;-53
2022/04/07 02:04:17;;;;;;;32.13;11.70;;;10.70;99.90;;;;;;5078916;28;20162;-52
2022/04/07 02:06:43;;;;;;;42.42;11.57;;;10.70;99.90;;;;;;5096809;28;20522;-52
2022/04/07 02:09:10;;;;;;;27.35;10.32;;;10.70;99.90;;;;;;5096685;28;20385;-52
2022/04/07 02:11:36;;;;;;;25.45;9.65;;;10.70;99.90;;;;;;5075298;28;20037;-52
2022/04/07 02:14:02;;;;;;;29.35;9.45;;;10.70;99.90;;;;;;5076327;28;20018;-52
2022/04/07 02:16:30;;;;;;;32.25;14.13;;;10.70;99.90;;;;;;5076384;28;20036;-52
2022/04/07 02:18:56;;;;;;;40.40;16.65;;;10.70;99.90;;;;;;5077513;28;20024;-52
2022/04/07 02:21:22;;;;;;;40.53;17.33;;;10.70;99.90;;;;;;5096304;28;20042;-53
2022/04/07 02:23:48;;;;;;;35.28;12.50;;;10.60;99.90;;;;;;5096240;28;20020;-52
2022/04/07 02:26:16;;;;;;;26.67;11.70;;;10.60;99.90;;;;;;5096576;28;20461;-52
2022/04/07 02:28:43;;;;;;;27.75;8.23;;;10.60;99.90;;;;;;5096279;28;20036;-52
2022/04/07 02:31:10;;;;;;;22.75;7.45;;;10.50;99.90;;;;;;5096196;28;20036;-52
2022/04/07 02:33:37;;;;;;;28.20;8.95;;;10.40;99.90;;;;;;5096544;28;20492;-52
2022/04/07 02:36:05;;;;;;;25.55;10.00;;;10.40;99.90;;;;;;5096279;28;20103;-52
2022/04/07 02:38:31;;;;;;;27.20;12.70;;;10.40;99.90;;;;;;5096267;28;20470;-52
2022/04/07 02:40:57;;;;;;;36.85;13.77;;;10.50;99.90;;;;;;5096294;28;20028;-52
2022/04/07 02:43:23;;;;;;;37.25;14.23;;;10.50;99.90;;;;;;5096085;28;20031;-52
2022/04/07 02:45:49;;;;;;;36.38;14.85;;;10.50;99.90;;;;;;5096142;28;20020;-52
2022/04/07 02:48:16;;;;;;;34.80;13.77;;;10.40;99.90;;;;;;5096268;28;20085;-52
2022/04/07 02:50:44;;;;;;;37.05;15.43;;;10.40;99.90;;;;;;5095810;28;20028;-52
2022/04/07 02:53:10;;;;;;;37.20;14.13;;;10.40;99.90;;;;;;5096140;28;20055;-52
2022/04/07 02:55:36;;;;;;;34.55;12.05;;;10.40;99.90;;;;;;5095912;28;20405;-52
2022/04/07 02:58:02;;;;;;;32.47;12.15;;;10.40;99.90;;;;;;5095829;28;20104;-52
2022/04/07 03:00:28;;;;;;;34.33;14.50;;;10.40;99.90;;;;;;5095869;28;20485;-53
2022/04/07 03:02:54;;;;;;;40.08;18.90;;;10.40;99.90;;;;;;5096016;28;20158;-52
2022/04/07 03:05:20;;;;;;;46.78;21.00;;;10.40;99.90;;;;;;5095662;28;20035;-52
2022/04/07 03:07:46;;;;;;;50.53;26.50;;;10.50;99.90;;;;;;5095836;28;20059;-52
2022/04/07 03:10:11;;;;;;;62.70;29.38;;;10.40;99.90;;;;;;5095537;28;20027;-52
2022/04/07 03:12:38;;;;;;;63.35;27.27;;;10.40;99.90;;;;;;5095460;28;20024;-52
2022/04/07 03:15:05;;;;;;;53.53;21.33;;;10.30;99.90;;;;;;5095633;28;20024;-52
2022/04/07 03:17:34;;;;;;;34.53;16.02;;;10.30;99.90;;;;;;5077382;28;20550;-52
2022/04/07 03:20:01;;;;;;;40.03;14.23;;;10.40;99.90;;;;;;5095278;28;20110;-52
2022/04/07 03:22:27;;;;;;;36.63;13.70;;;10.40;99.90;;;;;;5095596;28;20032;-52
2022/04/07 03:24:53;;;;;;;22.27;9.45;;;10.40;99.90;;;;;;5095389;28;20487;-52
2022/04/07 03:27:19;;;;;;;22.67;8.93;;;10.40;99.90;;;;;;5095381;28;20054;-52
2022/04/07 03:29:45;;;;;;;23.10;8.50;;;10.40;99.90;;;;;;5095598;28;20036;-53
2022/04/07 03:32:11;;;;;;;25.63;8.65;;;10.40;99.90;;;;;;5095017;28;20036;-52
2022/04/07 03:34:37;;;;;;;31.98;11.93;;;10.30;99.90;;;;;;5094177;28;20028;-52
2022/04/07 03:37:04;;;;;;;28.67;12.13;;;10.30;99.90;;;;;;5095347;28;20032;-53
2022/04/07 03:39:31;;;;;;;29.48;10.52;;;10.30;99.90;;;;;;5094986;28;20094;-52
2022/04/07 03:41:57;;;;;;;21.98;7.50;;;10.20;99.90;;;;;;5095143;28;20107;-52
2022/04/07 03:44:24;;;;;;;16.42;7.38;;;10.20;99.90;;;;;;5095010;28;20377;-53
2022/04/07 03:46:50;;;;;;;22.33;8.05;;;10.20;99.90;;;;;;5095011;28;20026;-53
2022/04/07 03:49:16;;;;;;;22.77;9.23;;;10.20;99.90;;;;;;5094986;28;20032;-52
2022/04/07 03:51:42;;;;;;;23.15;9.07;;;10.10;99.90;;;;;;5094984;28;20028;-52
2022/04/07 03:54:08;;;;;;;21.73;8.00;;;10.20;99.90;;;;;;5094755;28;20035;-53
2022/04/07 03:56:34;;;;;;;19.90;7.78;;;10.20;99.90;;;;;;5094854;28;20149;-53
2022/04/07 03:59:00;;;;;;;23.05;8.27;;;10.20;99.90;;;;;;5094868;28;20028;-53
2022/04/07 04:01:27;;;;;;;30.20;10.63;;;10.20;99.90;;;;;;5094984;28;20116;-52
2022/04/07 04:03:53;;;;;;;21.48;7.18;;;10.20;99.90;;;;;;5094819;28;20378;-52
2022/04/07 04:06:19;;;;;;;15.25;5.22;;;10.10;99.90;;;;;;5094614;28;20028;-52
2022/04/07 04:08:45;;;;;;;22.48;4.88;;;10.10;99.90;;;;;;5094735;28;20538;-52
2022/04/07 04:11:12;;;;;;;13.73;4.88;;;10.10;99.90;;;;;;5094380;28;20028;-52
2022/04/07 04:13:39;;;;;;;16.08;4.75;;;10.10;99.90;;;;;;5094647;28;20031;-53
2022/04/07 04:16:06;;;;;;;16.60;4.75;;;10.10;99.90;;;;;;5094580;28;20516;-52
2022/04/07 04:18:32;;;;;;;16.17;5.18;;;10.10;99.90;;;;;;5094541;28;20481;-53
2022/04/07 04:20:59;;;;;;;19.48;5.78;;;10.10;99.90;;;;;;5094522;28;20374;-52
2022/04/07 04:23:25;;;;;;;16.40;5.68;;;10.10;99.90;;;;;;5094298;28;20028;-52
2022/04/07 04:25:51;;;;;;;17.55;5.63;;;10.00;99.90;;;;;;5094497;28;20112;-53
2022/04/07 04:28:16;;;;;;;17.20;4.88;;;10.00;99.90;;;;;;5094605;28;20024;-53
2022/04/07 04:30:43;;;;;;;17.98;5.50;;;10.00;99.90;;;;;;5094153;28;20091;-53
2022/04/07 04:33:08;;;;;;;14.73;4.72;;;10.00;99.90;;;;;;5076375;28;20035;-53
2022/04/07 04:35:34;;;;;;;19.45;7.53;;;9.90;99.90;;;;;;5094532;28;20382;-53
2022/04/07 04:38:00;;;;;;;16.85;5.40;;;9.90;99.90;;;;;;5094217;28;20054;-52
2022/04/07 04:40:26;;;;;;;22.45;7.93;;;9.90;99.90;;;;;;5094564;28;20096;-53
2022/04/07 04:42:52;;;;;;;30.35;7.03;;;10.00;99.90;;;;;;5094263;28;20024;-52
2022/04/07 04:45:18;;;;;;;24.35;8.38;;;10.00;99.90;;;;;;5095499;28;20069;-53
2022/04/07 04:47:45;;;;;;;28.65;9.60;;;10.10;99.90;;;;;;5098475;28;20028;-53
2022/04/07 04:50:15;;;;;;;36.42;11.93;;;10.10;99.90;;;;;;5098206;28;20406;-53
2022/04/07 04:52:41;;;;;;;30.95;11.25;;;10.10;99.90;;;;;;5098618;28;20040;-53
2022/04/07 04:55:07;;;;;;;20.70;6.80;;;10.00;99.90;;;;;;5098204;28;20501;-52
2022/04/07 04:57:33;;;;;;;26.65;8.77;;;10.00;99.90;;;;;;5098335;28;20040;-53
2022/04/07 04:59:59;;;;;;;20.27;7.90;;;9.90;99.90;;;;;;5098195;28;20501;-53
2022/04/07 05:02:25;;;;;;;30.42;12.48;;;9.90;99.90;;;;;;5098223;28;20036;-53
2022/04/07 05:04:51;;;;;;;40.88;20.50;;;10.00;99.90;;;;;;5098113;28;20032;-53
2022/04/07 05:07:17;;;;;;;39.05;16.60;;;10.00;99.90;;;;;;5097952;28;20153;-53
2022/04/07 05:09:43;;;;;;;26.23;10.30;;;10.00;99.90;;;;;;5098106;28;20035;-53
2022/04/07 05:12:09;;;;;;;22.88;10.10;;;10.00;99.90;;;;;;5097816;28;20101;-53
2022/04/07 05:14:34;;;;;;;25.40;11.75;;;9.90;99.90;;;;;;5097859;28;20021;-54
2022/04/07 05:17:01;;;;;;;26.63;11.27;;;9.90;99.90;;;;;;5088498;28;20048;-53
2022/04/07 05:19:26;;;;;;;26.27;10.93;;;9.90;99.90;;;;;;5093357;28;20111;-53
2022/04/07 05:21:52;;;;;;;26.00;13.88;;;10.00;99.90;;;;;;5085707;28;20101;-52
2022/04/07 05:24:19;;;;;;;46.13;18.70;;;9.90;99.90;;;;;;5088460;28;20032;-53
2022/04/07 05:26:46;;;;;;;22.17;9.27;;;10.00;99.90;;;;;;5089737;28;20046;-53
2022/04/07 05:29:12;;;;;;;24.63;8.93;;;10.00;99.90;;;;;;5087970;28;20035;-53
2022/04/07 05:31:38;;;;;;;18.27;7.75;;;9.90;99.90;;;;;;5086847;28;20028;-53
2022/04/07 05:34:05;;;;;;;19.20;6.82;;;9.90;99.90;;;;;;5092152;28;20039;-52
2022/04/07 05:36:31;;;;;;;15.57;5.38;;;9.90;99.90;;;;;;5092988;28;20021;-52
2022/04/07 05:38:57;;;;;;;12.80;4.03;;;9.90;99.90;;;;;;5093155;28;20083;-53
2022/04/07 05:41:23;;;;;;;11.70;3.85;;;9.70;99.90;;;;;;5097024;28;20052;-53
2022/04/07 05:43:49;;;;;;;11.23;3.10;;;9.70;99.90;;;;;;5089247;28;20035;-53
2022/04/07 05:46:15;;;;;;;23.13;4.00;;;9.70;99.90;;;;;;5094482;28;20027;-53
2022/04/07 05:48:41;;;;;;;6.88;2.63;;;9.80;99.90;;;;;;5096461;28;20465;-53
2022/04/07 05:51:07;;;;;;;9.63;3.13;;;9.70;99.90;;;;;;5091053;28;20024;-53
2022/04/07 05:53:33;;;;;;;18.65;3.80;;;9.80;99.90;;;;;;5090504;28;20440;-53
2022/04/07 05:55:59;;;;;;;15.60;3.95;;;9.80;99.90;;;;;;5091918;28;20034;-53
2022/04/07 05:58:26;;;;;;;5.13;1.80;;;9.90;99.90;;;;;;5086153;28;20039;-53
2022/04/07 06:00:52;;;;;;;10.55;2.70;;;9.90;99.90;;;;;;5082058;28;20082;-53
2022/04/07 06:03:18;;;;;;;9.30;2.80;;;9.90;99.90;;;;;;5093727;28;20028;-52
2022/04/07 06:05:44;;;;;;;6.35;2.20;;;10.00;99.90;;;;;;5092161;28;20085;-52
2022/04/07 06:08:10;;;;;;;13.68;2.63;;;10.10;99.90;;;;;;5090841;28;20039;-53
2022/04/07 06:10:36;;;;;;;13.25;3.17;;;10.00;99.90;;;;;;5087944;28;20523;-53
2022/04/07 06:13:03;;;;;;;12.13;2.53;;;10.10;99.90;;;;;;5091030;28;20051;-53
2022/04/07 06:15:30;;;;;;;8.85;2.30;;;10.20;99.90;;;;;;5088534;28;20055;-53
2022/04/07 06:17:56;;;;;;;7.90;2.28;;;10.10;99.90;;;;;;5094760;28;20035;-53
2022/04/07 06:20:22;;;;;;;11.00;3.05;;;10.20;99.90;;;;;;5091871;28;20429;-53
2022/04/07 06:22:48;;;;;;;8.52;2.75;;;10.30;99.90;;;;;;5096619;28;20450;-53
2022/04/07 06:25:15;;;;;;;4.93;2.78;;;10.20;99.90;;;;;;5103508;28;20032;-53
2022/04/07 06:27:47;;;;;;;9.23;2.22;;;10.20;99.90;;;;;;5092712;28;20047;-53
2022/04/07 06:30:18;;;;;;;7.82;2.75;;;10.20;99.90;;;;;;5086432;28;20074;-53
2022/04/07 06:32:45;;;;;;;5.25;2.75;;;10.20;99.90;;;;;;5089802;28;20028;-53
2022/04/07 06:35:15;;;;;;;9.15;2.78;;;10.10;99.90;;;;;;5086771;28;20085;-53
2022/04/07 06:37:58;;;;;;;11.75;3.55;;;10.10;99.90;;;;;;5067420;28;20027;-53
2022/04/07 06:40:26;;;;;;;9.50;3.72;;;10.10;99.90;;;;;;5083408;28;20115;-53
2022/04/07 06:42:55;;;;;;;12.40;4.35;;;10.20;99.90;;;;;;5086163;28;20020;-53
2022/04/07 06:45:22;;;;;;;9.43;4.75;;;10.30;99.90;;;;;;5083377;28;20029;-53
2022/04/07 06:47:49;;;;;;;12.98;5.22;;;10.40;99.90;;;;;;5091191;28;20031;-54
2022/04/07 06:50:17;;;;;;;10.65;4.07;;;10.30;99.90;;;;;;5089296;28;20485;-53
2022/04/07 06:52:43;;;;;;;10.77;6.05;;;10.40;99.90;;;;;;5075466;28;20021;-53
2022/04/07 06:55:12;;;;;;;10.30;4.47;;;10.50;99.90;;;;;;5081277;28;20032;-53
2022/04/07 06:57:50;;;;;;;14.90;5.40;;;10.50;99.90;;;;;;5090661;28;20028;-53
2022/04/07 07:00:17;;;;;;;12.05;5.10;;;10.60;99.90;;;;;;5096328;28;20024;-53
2022/04/07 07:02:45;;;;;;;8.57;4.65;;;10.70;99.90;;;;;;5091999;28;20020;-53
2022/04/07 07:05:11;;;;;;;7.65;4.07;;;10.70;99.90;;;;;;5075368;28;20047;-53
2022/04/07 07:07:37;;;;;;;11.90;5.45;;;10.70;99.90;;;;;;5081759;28;20051;-53
2022/04/07 07:10:03;;;;;;;11.65;5.72;;;10.90;99.90;;;;;;5084420;28;20473;-53
2022/04/07 07:12:29;;;;;;;11.45;5.93;;;10.90;99.90;;;;;;5084826;28;20122;-53
2022/04/07 07:14:55;;;;;;;11.80;6.22;;;11.00;99.90;;;;;;5087210;28;20067;-53
2022/04/07 07:17:21;;;;;;;12.30;6.28;;;11.20;99.90;;;;;;5088088;28;20072;-53
2022/04/07 07:19:47;;;;;;;12.60;6.22;;;11.30;99.90;;;;;;5083812;28;20074;-53
2022/04/07 07:22:13;;;;;;;16.77;7.32;;;11.40;99.90;;;;;;5087422;28;20032;-53
2022/04/07 07:24:40;;;;;;;18.35;10.18;;;11.40;99.90;;;;;;5080621;28;20068;-53
2022/04/07 07:27:06;;;;;;;25.77;12.45;;;11.40;99.90;;;;;;5083380;28;20067;-53
2022/04/07 07:29:32;;;;;;;13.20;6.72;;;11.50;99.90;;;;;;5079775;28;20531;-53
2022/04/07 07:31:58;;;;;;;12.43;7.32;;;11.70;99.90;;;;;;5081676;28;20029;-53
2022/04/07 07:34:25;;;;;;;16.33;8.48;;;11.70;99.90;;;;;;5064238;28;20113;-53
2022/04/07 07:36:51;;;;;;;16.33;8.07;;;11.60;99.90;;;;;;5078772;28;20420;-53
2022/04/07 07:39:17;;;;;;;15.57;8.77;;;11.80;99.90;;;;;;5087491;28;20019;-53
2022/04/07 07:41:51;;;;;;;18.10;9.38;;;11.90;99.90;;;;;;5077930;28;20081;-53
2022/04/07 07:44:18;;;;;;;14.95;8.90;;;11.90;99.90;;;;;;5080205;28;20115;-53
2022/04/07 07:46:46;;;;;;;16.25;9.05;;;11.90;99.90;;;;;;5077741;28;20023;-53
2022/04/07 07:49:13;;;;;;;17.58;9.75;;;12.10;99.90;;;;;;5087944;28;20477;-54
2022/04/07 07:51:39;;;;;;;17.73;8.98;;;12.20;99.90;;;;;;5082723;28;20028;-53
2022/04/07 07:54:05;;;;;;;18.02;9.68;;;12.30;99.90;;;;;;5080644;28;20511;-53
2022/04/07 07:56:31;;;;;;;15.82;9.48;;;12.50;99.90;;;;;;5079768;28;20075;-53
2022/04/07 07:58:57;;;;;;;20.77;9.77;;;12.60;99.90;;;;;;5088621;28;20358;-53
2022/04/07 08:01:24;;;;;;;16.55;9.90;;;12.70;99.90;;;;;;5081856;28;20036;-53
2022/04/07 08:03:50;;;;;;;19.23;10.27;;;12.90;99.90;;;;;;5083658;28;20023;-53
2022/04/07 08:06:16;;;;;;;18.90;10.40;;;13.00;99.90;;;;;;5085291;28;20040;-53
2022/04/07 08:08:42;;;;;;;19.40;9.80;;;12.90;99.90;;;;;;5085051;28;20139;-53
2022/04/07 08:11:08;;;;;;;22.92;10.40;;;13.10;99.90;;;;;;5076959;28;20695;-53
2022/04/07 08:13:34;;;;;;;18.65;9.45;;;13.20;99.90;;;;;;5083041;28;20032;-53
2022/04/07 08:16:00;;;;;;;11.77;6.40;;;13.50;99.90;;;;;;5085619;28;20173;-53
2022/04/07 08:18:26;;;;;;;18.02;7.47;;;13.70;99.90;;;;;;5091504;28;20423;-53
2022/04/07 08:20:52;;;;;;;14.65;7.07;;;13.80;99.90;;;;;;5087046;28;20051;-53
2022/04/07 08:23:18;;;;;;;13.80;4.63;;;13.60;99.90;;;;;;5082724;28;20024;-53
2022/04/07 08:25:44;;;;;;;6.72;3.22;;;13.60;99.90;;;;;;5085740;28;20553;-53
2022/04/07 08:28:10;;;;;;;7.47;2.50;;;13.60;99.90;;;;;;5085319;28;20282;-53
2022/04/07 08:30:37;;;;;;;20.88;4.55;;;13.40;99.90;;;;;;5081059;28;20032;-53
2022/04/07 08:33:06;;;;;;;16.25;4.45;;;13.20;99.90;;;;;;5088588;28;20469;-54
2022/04/07 08:35:32;;;;;;;20.75;5.93;;;13.30;99.90;;;;;;5084891;28;20077;-54
2022/04/07 08:37:58;;;;;;;24.85;7.50;;;13.20;99.90;;;;;;5089378;28;20065;-53
2022/04/07 08:40:25;;;;;;;28.00;7.53;;;13.10;99.90;;;;;;5084681;28;20115;-54
2022/04/07 08:42:55;;;;;;;17.35;9.65;;;13.20;99.90;;;;;;5080986;28;20384;-53
2022/04/07 08:45:21;;;;;;;20.60;9.85;;;13.30;99.90;;;;;;5072617;28;20028;-53
2022/04/07 08:47:50;;;;;;;19.85;6.68;;;13.10;99.90;;;;;;5079888;28;20024;-53
2022/04/07 08:50:21;;;;;;;14.95;5.90;;;13.00;99.90;;;;;;5085840;28;20021;-53
2022/04/07 08:52:47;;;;;;;17.55;9.80;;;12.80;99.90;;;;;;5081968;28;20504;-54
2022/04/07 08:55:14;;;;;;;23.10;11.85;;;12.90;99.90;;;;;;5084047;28;20124;-54
2022/04/07 08:57:41;;;;;;;34.83;13.55;;;13.00;99.90;;;;;;5083251;28;20032;-54
2022/04/07 09:00:08;;;;;;;26.58;14.35;;;13.00;99.90;;;;;;5089760;28;20052;-54
2022/04/07 09:02:34;;;;;;;36.45;18.55;;;13.00;99.90;;;;;;5083315;28;20648;-54
2022/04/07 09:05:00;;;;;;;36.50;18.90;;;12.90;99.90;;;;;;5077119;28;20033;-54
2022/04/07 09:07:33;;;;;;;36.95;17.15;;;12.80;99.90;;;;;;5086576;28;20024;-53
2022/04/07 09:10:05;;;;;;;26.98;12.13;;;12.90;99.90;;;;;;5084176;28;20024;-54
2022/04/07 09:12:33;;;;;;;26.15;13.50;;;12.90;99.90;;;;;;5085406;28;20032;-54
2022/04/07 09:15:00;;;;;;;23.55;11.65;;;12.90;99.90;;;;;;5077020;28;20390;-54
2022/04/07 09:17:32;;;;;;;21.42;9.73;;;12.80;99.90;;;;;;5077890;28;20040;-53
2022/04/07 09:19:58;;;;;;;15.65;7.60;;;12.90;99.90;;;;;;5087734;28;20035;-54
2022/04/07 09:22:31;;;;;;;14.07;6.78;;;13.00;99.90;;;;;;5077988;28;20028;-54
2022/04/07 09:25:05;;;;;;;12.07;6.88;;;12.90;99.90;;;;;;5080932;28;20035;-54
2022/04/07 09:27:31;;;;;;;14.20;5.72;;;13.20;99.90;;;;;;5075734;28;20038;-53
2022/04/07 09:29:57;;;;;;;12.23;6.22;;;13.50;99.90;;;;;;5087730;28;20028;-53
2022/04/07 09:32:25;;;;;;;33.78;11.98;;;13.60;99.90;;;;;;5079170;28;20027;-53
2022/04/07 09:34:57;;;;;;;30.70;11.98;;;13.50;99.90;;;;;;5080909;28;20107;-53
2022/04/07 09:37:25;;;;;;;32.78;12.25;;;13.60;99.90;;;;;;5089645;28;20025;-53
2022/04/07 09:40:06;;;;;;;28.88;10.90;;;13.70;99.90;;;;;;5096676;28;20020;-54
2022/04/07 09:42:35;;;;;;;29.13;9.75;;;13.70;99.90;;;;;;5094692;28;20114;-53
2022/04/07 09:45:04;;;;;;;17.73;8.18;;;13.70;99.90;;;;;;5097554;28;20043;-53
2022/04/07 09:47:42;;;;;;;30.35;9.60;;;13.70;99.90;;;;;;5096941;28;20025;-53
2022/04/07 09:50:29;;;;;;;26.65;9.38;;;13.70;99.90;;;;;;5096783;28;20073;-53
2022/04/07 09:52:56;;;;;;;25.33;10.25;;;13.90;99.90;;;;;;5096983;28;20032;-54
2022/04/07 09:55:42;;;;;;;18.58;7.32;;;14.30;99.90;;;;;;5097564;28;20034;-54
2022/04/07 09:58:11;;;;;;;19.40;6.63;;;14.40;99.90;;;;;;5097737;28;20102;-54
2022/04/07 10:00:38;;;;;;;33.25;6.57;;;14.50;99.90;;;;;;5097056;28;20039;-54
2022/04/07 10:03:10;;;;;;;20.52;7.15;;;14.70;99.90;;;;;;5097376;28;20035;-54
2022/04/07 10:05:37;;;;;;;22.00;6.07;;;14.90;99.90;;;;;;5095776;28;20441;-54
2022/04/07 10:08:04;;;;;;;20.92;5.95;;;14.80;99.90;;;;;;5086513;28;20351;-54
2022/04/07 10:10:30;;;;;;;15.55;5.50;;;14.60;99.90;;;;;;5076170;28;20563;-54
2022/04/07 10:12:59;;;;;;;40.30;8.40;;;14.40;99.90;;;;;;5081324;28;20024;-54
2022/04/07 10:15:26;;;;;;;21.23;6.82;;;14.40;99.90;;;;;;5096007;28;20019;-54
2022/04/07 10:17:52;;;;;;;18.92;6.18;;;14.60;99.90;;;;;;5096562;28;20139;-54
2022/04/07 10:20:19;;;;;;;22.42;7.35;;;15.10;99.90;;;;;;5096346;28;20031;-54
2022/04/07 10:22:53;;;;;;;22.73;9.40;;;15.60;99.90;;;;;;5096705;28;20048;-54
2022/04/07 10:25:22;;;;;;;25.25;7.65;;;16.00;99.90;;;;;;5097352;28;20103;-54
2022/04/07 10:27:57;;;;;;;25.38;8.73;;;16.00;99.90;;;;;;5095763;28;20017;-54
2022/04/07 10:30:23;;;;;;;32.70;10.82;;;15.90;99.90;;;;;;5082064;28;20137;-54
2022/04/07 10:32:54;;;;;;;21.63;9.65;;;15.80;99.90;;;;;;5096205;28;20490;-54
2022/04/07 10:35:34;;;;;;;23.73;11.60;;;16.30;99.90;;;;;;5096028;28;20036;-54
2022/04/07 10:38:10;;;;;;;25.00;10.88;;;16.30;99.90;;;;;;5086225;28;20568;-54
2022/04/07 10:40:50;;;;;;;16.83;7.35;;;16.70;99.90;;;;;;5075939;28;20466;-54
2022/04/07 10:43:25;;;;;;;16.60;3.33;;;16.90;99.80;;;;;;5075268;28;20033;-54
2022/04/07 10:46:08;;;;;;;19.20;4.43;;;16.70;98.00;;;;;;5075286;28;20032;-54
2022/04/07 10:48:45;;;;;;;12.40;3.38;;;17.20;99.20;;;;;;5075780;28;20390;-54
2022/04/07 10:51:13;;;;;;;12.85;3.40;;;17.80;99.60;;;;;;5075511;28;20083;-54
2022/04/07 10:53:51;;;;;;;13.75;3.05;;;17.60;97.00;;;;;;5075860;28;20077;-54
2022/04/07 10:56:24;;;;;;;10.20;2.58;;;17.40;96.70;;;;;;5075702;28;20719;-54
2022/04/07 10:58:51;;;;;;;18.52;4.47;;;16.90;96.50;;;;;;5076036;28;20025;-53
2022/04/07 11:01:32;;;;;;;7.47;2.80;;;16.60;98.40;;;;;;5036245;28;20067;-54
2022/04/07 11:04:25;;;;;;;18.95;4.45;;;16.20;99.80;;;;;;5033924;28;20024;-54
2022/04/07 11:07:10;;;;;;;15.93;3.38;;;16.30;99.90;;;;;;5027059;28;20608;-54
2022/04/07 11:09:57;;;;;;;14.77;7.47;;;16.30;99.90;;;;;;5034244;28;20016;-54
2022/04/07 11:12:29;;;;;;;10.50;2.88;;;16.10;99.10;;;;;;5076165;28;20024;-53
2022/04/07 11:15:01;;;;;;;11.60;2.80;;;16.30;99.90;;;;;;5087452;28;20024;-53
2022/04/07 11:17:47;;;;;;;17.85;5.07;;;16.30;99.30;;;;;;5095945;28;20047;-54
2022/04/07 11:20:22;;;;;;;18.08;3.95;;;16.80;98.80;;;;;;5095764;28;20024;-54
2022/04/07 11:23:09;;;;;;;13.82;3.42;;;17.30;97.50;;;;;;5095073;28;20028;-53
2022/04/07 11:25:37;;;;;;;14.18;3.65;;;17.30;97.20;;;;;;5095779;28;20024;-54
2022/04/07 11:28:22;;;;;;;20.77;3.80;;;17.30;97.70;;;;;;5095031;28;20050;-53
2022/04/07 11:30:50;;;;;;;31.17;9.55;;;17.40;94.40;;;;;;5094862;28;20027;-54
2022/04/07 11:33:27;;;;;;;8.15;2.53;;;17.10;94.90;;;;;;5095261;28;20047;-53
2022/04/07 11:35:59;;;;;;;9.75;2.80;;;17.00;93.30;;;;;;5095778;28;20038;-54
2022/04/07 11:38:26;;;;;;;13.70;2.53;;;17.40;96.60;;;;;;5095769;28;20119;-54
2022/04/07 11:41:04;;;;;;;5.88;2.92;;;17.30;95.30;;;;;;5095792;28;20035;-54
2022/04/07 11:43:31;;;;;;;11.15;2.78;;;17.00;94.30;;;;;;5076743;28;20039;-53
2022/04/07 11:45:58;;;;;;;17.40;4.60;;;17.10;94.60;;;;;;5084291;28;20033;-54
2022/04/07 11:48:30;;;;;;;20.48;3.38;;;17.10;97.20;;;;;;5062081;28;20127;-53
2022/04/07 11:51:00;;;;;;;9.02;3.35;;;16.90;96.30;;;;;;5090957;28;20024;-53
2022/04/07 11:53:27;;;;;;;14.98;3.92;;;16.80;96.50;;;;;;5084459;28;20044;-54
2022/04/07 11:55:54;;;;;;;11.63;3.50;;;16.80;96.60;;;;;;5080394;28;20024;-53
2022/04/07 11:58:20;;;;;;;14.52;4.30;;;16.50;96.80;;;;;;5077322;28;20028;-53
2022/04/07 12:00:46;;;;;;;19.40;5.72;;;16.50;97.20;;;;;;5081039;28;20041;-53
2022/04/07 12:03:12;;;;;;;9.52;2.88;;;16.30;97.70;;;;;;5091917;28;20493;-53
2022/04/07 12:05:40;;;;;;;10.50;3.60;;;16.20;97.60;;;;;;5080452;28;20052;-53
2022/04/07 12:08:13;;;;;;;12.70;4.53;;;16.00;97.00;;;;;;5080657;28;20373;-53
2022/04/07 12:10:41;;;;;;;19.10;5.68;;;16.10;98.90;;;;;;5093276;28;20541;-53
2022/04/07 12:13:07;;;;;;;13.85;4.70;;;16.00;98.50;;;;;;5090223;28;20032;-53
2022/04/07 12:15:38;;;;;;;23.05;6.20;;;15.90;99.30;;;;;;5078498;28;20110;-53
2022/04/07 12:18:08;;;;;;;16.27;5.05;;;15.90;98.70;;;;;;5089646;28;20037;-53
2022/04/07 12:20:38;;;;;;;12.23;4.53;;;15.70;99.10;;;;;;5081823;28;20687;-53
2022/04/07 12:23:11;;;;;;;16.35;4.90;;;15.80;98.40;;;;;;5082725;28;20561;-53
2022/04/07 12:25:40;;;;;;;21.38;4.43;;;15.60;98.40;;;;;;5079613;28;20324;-53
2022/04/07 12:28:11;;;;;;;17.65;5.63;;;15.60;98.70;;;;;;5089864;28;20524;-53
2022/04/07 12:30:50;;;;;;;18.83;6.88;;;15.60;98.90;;;;;;5085676;28;20028;-53
2022/04/07 12:33:37;;;;;;;17.55;7.03;;;15.60;99.80;;;;;;5047976;28;20032;-53
2022/04/07 12:36:05;;;;;;;17.38;5.25;;;15.60;99.80;;;;;;5073942;28;20414;-53
2022/04/07 12:38:31;;;;;;;27.58;8.63;;;15.50;99.90;;;;;;5089142;28;20875;-54
2022/04/07 12:41:12;;;;;;;19.73;7.15;;;15.50;99.00;;;;;;5091606;28;20024;-54